Terminal Aerodrome Forecast
Issued by NWS

Home | Current Version | Previous Version | Text Only | Print | Product List | Glossary On
Versions: 1 2 3 4 5 6 7 8 9 10 11 12 13 14 15 16 17 18
000
FTAK31 PAJN 270600 AAA
TAFAJN
TAF AMD
PAJN 270629Z 2706/2806 10012KT P6SM VCSH SCT040 BKN070 BKN120
     FM270900 12010KT P6SM VCSH BKN030 OVC050
     FM271300 10007KT 6SM -SHRA BCFG SCT020 OVC040
     FM271900 12012KT P6SM -SHRA SCT030 OVC050 WS020/14025KT
     FM280000 VRB06KT P6SM VCSH SCT030 OVC050=

USA.gov is the U.S. government's official web portal to all federal, state and local government web resources and services.